Tropical Cyclones
[Index]
Main Index Home Page Stock Weather Photos Extreme Storms Discussion Storm News and Storm Chasing Reports Tropical Cyclones / Hurricanes / Typhoons Weather Data and Links Wild Fires / Bushfires Weather Observation Techniques Weather Picture Catalogue Tornado Pictures and Reports Stock Video Footage and DVDs for sale
Season 1968-1969 Tropical Cyclone 196869_16 Track Map
Season 1968-1969 Summaries: [BoM-AU] [JTWC-AU] [JTWC-SIO] [JTWC-SPAC] [JTWC-SH]
<<- Previous TC | BoM 1968-1969 Season | Next TC ->>

click for intensity scale information  Lat/long Grid: Show Hide

 Date Labels: Show Hide

Bureau of Meteorology Tropical Cyclone Data

Name: 196869_16
Number: 449 / 196869_16

11 Apr 1969 11:00 UTC to 16 Apr 1969 17:00 UTC

    date/time    lat    long    hPa   cat  kts
1969-04-11 11   10.6   164.9   1004                     
1969-04-11 14   10.9   164.7   1004                     
1969-04-11 17   11.2   164.5   1003                     
1969-04-11 20   11.5   164.2   1003                     
1969-04-11 23   11.8   164.0   1003                     
1969-04-12 02   12.0   163.9   1003                     
1969-04-12 05   12.2   163.7   1003                     
1969-04-12 08   12.3   163.6   1003                     
1969-04-12 11   12.5   163.5   1004                     
1969-04-12 14   12.7   163.4   1003                     
1969-04-12 17   13.0   163.2   1002                     
1969-04-12 20   13.2   163.1   1002                     
1969-04-12 23   13.4   163.0   1003                     
1969-04-13 02   13.8   162.7   1002                     
1969-04-13 05   14.2   162.5   1001                     
1969-04-13 08   14.5   162.3   1001                     
1969-04-13 11   14.9   162.1   1002                     
1969-04-13 14   15.3   161.9   1001                     
1969-04-13 17   15.7   161.7   1000                     
1969-04-13 20   16.2   161.3   1000                     
1969-04-13 23   16.7   161.0   1001                     
1969-04-14 02   17.2   160.5   1001                     
1969-04-14 05   17.6   160.1   1001                     
1969-04-14 08   18.2   159.7   1000                     
1969-04-14 11   18.8   159.2   1000                     
1969-04-14 14   19.5   158.8   1000                     
1969-04-14 17   20.3   158.4   1001                     
1969-04-14 20   21.6   157.7   1001                     
1969-04-14 23   23.0   157.1   1001                     
1969-04-15 02   23.5   156.9   1001                     
1969-04-15 05   24.0   156.8   1001                     
1969-04-15 08   24.6   156.6   1001                     
1969-04-15 11   25.3   156.4   1002                     
1969-04-15 14   26.3   156.5   1002                     
1969-04-15 17   27.3   156.5   1002                     
1969-04-15 20   28.0   156.6   1001                     
1969-04-15 23   28.6   156.8   1001                     
1969-04-16 02   29.3   157.4   1000                     
1969-04-16 05   30.0   158.0    998                     
1969-04-16 08   30.5   158.7    997                     
1969-04-16 11   31.0   159.3    996                     
1969-04-16 14   31.3   159.6    996                     
1969-04-16 17   31.5   160.0    996                     
Winds are 10-min average.

Tropical cyclone tracks developed by Michael Bath using data from the Bureau of Meteorology and Google Maps.


[Australian Severe Weather index] [Copyright Notice] [Email Contacts] [Search This Site] [Privacy Policy]
Document: tropical_cyclone_196869_16.htm Updated: 30 May 2013